NCAR-RAP Real-Time Weather Data

Output produced by METARs form (10 April 2020  07:18 UTC)
found at http://weather.rap.ucar.edu/surface/
 
KORF 100651Z 33007G18KT 300V360 10SM CLR 12/M01 A2962 RMK AO2 SLP028 T01171011